Terminal Aerodrome Forecast
Issued by NWS

Home | Current Version | Previous Version | Text Only | Print | Product List | Glossary On
Versions: 1 2 3 4 5 6 7 8 9 10 11 12 13
000
FTUS44 KMAF 140520
TAFPEQ
TAF
KPEQ 140520Z 1406/1506 28006KT P6SM FEW250
     FM141800 03010G17KT P6SM FEW100
     FM150000 04007KT P6SM SCT100=

USA.gov is the U.S. government's official web portal to all federal, state and local government web resources and services.